sensor_id;sensor_type;location;lat;lon;timestamp;P1;durP1;ratioP1;P2;durP2;ratioP2
52320;SDS011;38261;54.090;13.382;2022-08-01T00:00:06;5.40;;;1.97;;
52320;SDS011;38261;54.090;13.382;2022-08-01T00:01:30;6.83;;;1.63;;
52320;SDS011;38261;54.090;13.382;2022-08-01T00:02:52;2.77;;;1.70;;
52320;SDS011;38261;54.090;13.382;2022-08-01T00:04:15;1.93;;;1.60;;
52320;SDS011;38261;54.090;13.382;2022-08-01T00:05:37;2.07;;;1.43;;
52320;SDS011;38261;54.090;13.382;2022-08-01T00:06:59;1.70;;;1.20;;
52320;SDS011;38261;54.090;13.382;2022-08-01T00:08:21;2.87;;;1.23;;
52320;SDS011;38261;54.090;13.382;2022-08-01T00:09:44;1.53;;;1.17;;
52320;SDS011;38261;54.090;13.382;2022-08-01T00:11:06;3.33;;;1.47;;
52320;SDS011;38261;54.090;13.382;2022-08-01T00:12:30;2.50;;;1.33;;
52320;SDS011;38261;54.090;13.382;2022-08-01T00:13:53;2.90;;;1.53;;
52320;SDS011;38261;54.090;13.382;2022-08-01T00:15:15;3.17;;;1.50;;
52320;SDS011;38261;54.090;13.382;2022-08-01T00:16:38;2.00;;;1.43;;
52320;SDS011;38261;54.090;13.382;2022-08-01T00:18:00;2.47;;;1.57;;
52320;SDS011;38261;54.090;13.382;2022-08-01T00:19:22;2.13;;;1.37;;
52320;SDS011;38261;54.090;13.382;2022-08-01T00:20:45;1.67;;;1.20;;
52320;SDS011;38261;54.090;13.382;2022-08-01T00:22:07;2.07;;;1.37;;
52320;SDS011;38261;54.090;13.382;2022-08-01T00:23:30;5.30;;;1.33;;
52320;SDS011;38261;54.090;13.382;2022-08-01T00:24:52;3.77;;;1.80;;
52320;SDS011;38261;54.090;13.382;2022-08-01T00:26:14;2.47;;;1.60;;
52320;SDS011;38261;54.090;13.382;2022-08-01T00:27:36;1.60;;;1.33;;
52320;SDS011;38261;54.090;13.382;2022-08-01T00:28:58;1.90;;;1.20;;
52320;SDS011;38261;54.090;13.382;2022-08-01T00:30:21;3.77;;;1.13;;
52320;SDS011;38261;54.090;13.382;2022-08-01T00:31:43;2.20;;;1.30;;
52320;SDS011;38261;54.090;13.382;2022-08-01T00:33:05;1.43;;;1.33;;
52320;SDS011;38261;54.090;13.382;2022-08-01T00:34:27;1.67;;;1.20;;
52320;SDS011;38261;54.090;13.382;2022-08-01T00:35:49;1.60;;;1.40;;
52320;SDS011;38261;54.090;13.382;2022-08-01T00:37:11;2.90;;;1.53;;
52320;SDS011;38261;54.090;13.382;2022-08-01T00:38:36;1.67;;;1.30;;
52320;SDS011;38261;54.090;13.382;2022-08-01T00:39:58;2.30;;;1.43;;
52320;SDS011;38261;54.090;13.382;2022-08-01T00:41:20;1.87;;;1.47;;
52320;SDS011;38261;54.090;13.382;2022-08-01T00:42:43;3.60;;;1.60;;
52320;SDS011;38261;54.090;13.382;2022-08-01T00:44:05;2.50;;;1.40;;
52320;SDS011;38261;54.090;13.382;2022-08-01T00:45:27;1.90;;;1.70;;
52320;SDS011;38261;54.090;13.382;2022-08-01T00:46:49;6.53;;;1.60;;
52320;SDS011;38261;54.090;13.382;2022-08-01T00:48:11;4.43;;;1.90;;
52320;SDS011;38261;54.090;13.382;2022-08-01T00:49:34;1.80;;;1.40;;
52320;SDS011;38261;54.090;13.382;2022-08-01T00:50:56;3.17;;;1.57;;
52320;SDS011;38261;54.090;13.382;2022-08-01T00:52:19;1.90;;;1.50;;
52320;SDS011;38261;54.090;13.382;2022-08-01T00:53:41;2.03;;;1.30;;
52320;SDS011;38261;54.090;13.382;2022-08-01T00:55:12;1.77;;;1.33;;
52320;SDS011;38261;54.090;13.382;2022-08-01T00:56:35;1.93;;;1.30;;
52320;SDS011;38261;54.090;13.382;2022-08-01T00:57:58;1.83;;;1.23;;
52320;SDS011;38261;54.090;13.382;2022-08-01T00:59:26;3.63;;;2.03;;
52320;SDS011;38261;54.090;13.382;2022-08-01T01:00:49;3.80;;;1.57;;
52320;SDS011;38261;54.090;13.382;2022-08-01T01:02:14;8.53;;;1.80;;
52320;SDS011;38261;54.090;13.382;2022-08-01T01:03:37;1.60;;;1.30;;
52320;SDS011;38261;54.090;13.382;2022-08-01T01:05:19;4.03;;;1.40;;
52320;SDS011;38261;54.090;13.382;2022-08-01T01:06:44;5.03;;;1.40;;
52320;SDS011;38261;54.090;13.382;2022-08-01T01:08:13;3.93;;;1.53;;
52320;SDS011;38261;54.090;13.382;2022-08-01T01:10:25;1.60;;;1.50;;
52320;SDS011;38261;54.090;13.382;2022-08-01T01:11:49;1.70;;;1.40;;
52320;SDS011;38261;54.090;13.382;2022-08-01T01:15:14;1.83;;;1.20;;
52320;SDS011;38261;54.090;13.382;2022-08-01T01:16:43;4.53;;;1.43;;
52320;SDS011;38261;54.090;13.382;2022-08-01T01:20:04;5.23;;;1.50;;
52320;SDS011;38261;54.090;13.382;2022-08-01T01:25:03;3.77;;;1.50;;
52320;SDS011;38261;54.090;13.382;2022-08-01T01:28:20;3.40;;;1.67;;
52320;SDS011;38261;54.090;13.382;2022-08-01T01:30:05;1.83;;;1.47;;
52320;SDS011;38261;54.090;13.382;2022-08-01T01:31:28;3.40;;;1.60;;
52320;SDS011;38261;54.090;13.382;2022-08-01T01:32:52;1.50;;;1.17;;
52320;SDS011;38261;54.090;13.382;2022-08-01T01:34:16;2.30;;;1.50;;
52320;SDS011;38261;54.090;13.382;2022-08-01T01:35:42;3.10;;;1.40;;
52320;SDS011;38261;54.090;13.382;2022-08-01T01:37:09;4.33;;;1.93;;
52320;SDS011;38261;54.090;13.382;2022-08-01T01:38:42;1.93;;;1.30;;
52320;SDS011;38261;54.090;13.382;2022-08-01T01:40:07;2.10;;;1.30;;
52320;SDS011;38261;54.090;13.382;2022-08-01T01:41:32;3.50;;;1.50;;
52320;SDS011;38261;54.090;13.382;2022-08-01T01:42:55;3.13;;;1.73;;
52320;SDS011;38261;54.090;13.382;2022-08-01T01:44:19;3.17;;;1.50;;
52320;SDS011;38261;54.090;13.382;2022-08-01T01:45:42;2.40;;;2.00;;
52320;SDS011;38261;54.090;13.382;2022-08-01T01:47:07;3.70;;;1.67;;
52320;SDS011;38261;54.090;13.382;2022-08-01T01:48:29;2.63;;;1.63;;
52320;SDS011;38261;54.090;13.382;2022-08-01T01:49:54;5.23;;;2.33;;
52320;SDS011;38261;54.090;13.382;2022-08-01T01:51:18;3.00;;;1.87;;
52320;SDS011;38261;54.090;13.382;2022-08-01T01:52:43;3.90;;;2.00;;
52320;SDS011;38261;54.090;13.382;2022-08-01T01:54:06;1.70;;;1.60;;
52320;SDS011;38261;54.090;13.382;2022-08-01T01:55:30;3.33;;;1.93;;
52320;SDS011;38261;54.090;13.382;2022-08-01T01:57:10;3.40;;;1.93;;
52320;SDS011;38261;54.090;13.382;2022-08-01T01:58:34;3.63;;;2.30;;
52320;SDS011;38261;54.090;13.382;2022-08-01T01:59:59;2.20;;;2.00;;
52320;SDS011;38261;54.090;13.382;2022-08-01T02:01:23;2.33;;;2.13;;
52320;SDS011;38261;54.090;13.382;2022-08-01T02:03:09;3.43;;;2.33;;
52320;SDS011;38261;54.090;13.382;2022-08-01T02:04:35;2.50;;;2.30;;
52320;SDS011;38261;54.090;13.382;2022-08-01T02:05:59;3.93;;;2.57;;
52320;SDS011;38261;54.090;13.382;2022-08-01T02:07:24;4.67;;;2.50;;
52320;SDS011;38261;54.090;13.382;2022-08-01T02:08:47;6.77;;;2.20;;
52320;SDS011;38261;54.090;13.382;2022-08-01T02:10:10;3.20;;;2.40;;
52320;SDS011;38261;54.090;13.382;2022-08-01T02:11:35;2.90;;;2.47;;
52320;SDS011;38261;54.090;13.382;2022-08-01T02:13:19;3.10;;;2.70;;
52320;SDS011;38261;54.090;13.382;2022-08-01T02:14:41;2.63;;;2.43;;
52320;SDS011;38261;54.090;13.382;2022-08-01T02:16:06;6.60;;;3.37;;
52320;SDS011;38261;54.090;13.382;2022-08-01T02:17:32;4.30;;;2.60;;
52320;SDS011;38261;54.090;13.382;2022-08-01T02:19:01;3.30;;;3.00;;
52320;SDS011;38261;54.090;13.382;2022-08-01T02:20:24;4.60;;;3.20;;
52320;SDS011;38261;54.090;13.382;2022-08-01T02:22:01;4.10;;;3.17;;
52320;SDS011;38261;54.090;13.382;2022-08-01T02:23:31;8.30;;;3.43;;
52320;SDS011;38261;54.090;13.382;2022-08-01T02:27:25;3.27;;;2.97;;
52320;SDS011;38261;54.090;13.382;2022-08-01T02:28:57;4.73;;;3.97;;
52320;SDS011;38261;54.090;13.382;2022-08-01T02:30:24;4.67;;;3.73;;
52320;SDS011;38261;54.090;13.382;2022-08-01T02:31:48;7.60;;;3.50;;
52320;SDS011;38261;54.090;13.382;2022-08-01T02:33:21;3.60;;;2.97;;
52320;SDS011;38261;54.090;13.382;2022-08-01T02:34:46;4.93;;;3.60;;
52320;SDS011;38261;54.090;13.382;2022-08-01T02:36:12;3.90;;;3.50;;
52320;SDS011;38261;54.090;13.382;2022-08-01T02:37:53;4.60;;;3.53;;
52320;SDS011;38261;54.090;13.382;2022-08-01T02:39:18;5.97;;;3.97;;
52320;SDS011;38261;54.090;13.382;2022-08-01T02:40:43;6.97;;;4.10;;
52320;SDS011;38261;54.090;13.382;2022-08-01T02:42:08;5.30;;;4.10;;
52320;SDS011;38261;54.090;13.382;2022-08-01T02:43:33;6.60;;;4.10;;
52320;SDS011;38261;54.090;13.382;2022-08-01T02:44:57;3.97;;;3.57;;
52320;SDS011;38261;54.090;13.382;2022-08-01T02:46:21;5.67;;;4.37;;
52320;SDS011;38261;54.090;13.382;2022-08-01T02:47:47;5.20;;;4.13;;
52320;SDS011;38261;54.090;13.382;2022-08-01T02:49:11;5.57;;;4.40;;
52320;SDS011;38261;54.090;13.382;2022-08-01T02:50:35;6.10;;;4.93;;
52320;SDS011;38261;54.090;13.382;2022-08-01T02:51:59;7.07;;;4.10;;
52320;SDS011;38261;54.090;13.382;2022-08-01T02:53:27;5.47;;;3.90;;
52320;SDS011;38261;54.090;13.382;2022-08-01T02:55:04;7.10;;;3.50;;
52320;SDS011;38261;54.090;13.382;2022-08-01T02:56:29;7.57;;;3.90;;
52320;SDS011;38261;54.090;13.382;2022-08-01T02:57:59;3.93;;;3.50;;
52320;SDS011;38261;54.090;13.382;2022-08-01T02:59:23;4.60;;;3.37;;
52320;SDS011;38261;54.090;13.382;2022-08-01T03:00:47;3.80;;;3.40;;
52320;SDS011;38261;54.090;13.382;2022-08-01T03:02:10;4.80;;;3.20;;
52320;SDS011;38261;54.090;13.382;2022-08-01T03:03:33;7.00;;;3.43;;
52320;SDS011;38261;54.090;13.382;2022-08-01T03:04:56;11.00;;;3.70;;
52320;SDS011;38261;54.090;13.382;2022-08-01T03:06:20;7.63;;;3.30;;
52320;SDS011;38261;54.090;13.382;2022-08-01T03:07:43;5.23;;;3.17;;
52320;SDS011;38261;54.090;13.382;2022-08-01T03:09:09;9.17;;;3.47;;
52320;SDS011;38261;54.090;13.382;2022-08-01T03:10:32;4.73;;;3.73;;
52320;SDS011;38261;54.090;13.382;2022-08-01T03:11:57;6.70;;;3.70;;
52320;SDS011;38261;54.090;13.382;2022-08-01T03:13:22;7.03;;;4.30;;
52320;SDS011;38261;54.090;13.382;2022-08-01T03:14:47;5.50;;;3.20;;
52320;SDS011;38261;54.090;13.382;2022-08-01T03:16:11;8.23;;;4.30;;
52320;SDS011;38261;54.090;13.382;2022-08-01T03:17:36;3.90;;;3.47;;
52320;SDS011;38261;54.090;13.382;2022-08-01T03:19:00;4.37;;;3.57;;
52320;SDS011;38261;54.090;13.382;2022-08-01T03:20:25;9.37;;;4.13;;
52320;SDS011;38261;54.090;13.382;2022-08-01T03:21:48;4.70;;;3.10;;
52320;SDS011;38261;54.090;13.382;2022-08-01T03:23:12;6.10;;;4.13;;
52320;SDS011;38261;54.090;13.382;2022-08-01T03:24:37;4.20;;;3.80;;
52320;SDS011;38261;54.090;13.382;2022-08-01T03:26:01;5.50;;;4.40;;
52320;SDS011;38261;54.090;13.382;2022-08-01T03:27:24;5.73;;;3.90;;
52320;SDS011;38261;54.090;13.382;2022-08-01T03:28:47;5.00;;;3.57;;
52320;SDS011;38261;54.090;13.382;2022-08-01T03:30:11;9.17;;;4.00;;
52320;SDS011;38261;54.090;13.382;2022-08-01T03:31:35;6.50;;;3.90;;
52320;SDS011;38261;54.090;13.382;2022-08-01T03:32:58;4.70;;;3.57;;
52320;SDS011;38261;54.090;13.382;2022-08-01T03:34:21;6.27;;;4.00;;
52320;SDS011;38261;54.090;13.382;2022-08-01T03:35:48;4.60;;;3.67;;
52320;SDS011;38261;54.090;13.382;2022-08-01T03:37:25;5.83;;;4.00;;
52320;SDS011;38261;54.090;13.382;2022-08-01T03:39:39;6.50;;;3.77;;
52320;SDS011;38261;54.090;13.382;2022-08-01T03:41:09;3.40;;;3.10;;
52320;SDS011;38261;54.090;13.382;2022-08-01T03:42:39;4.57;;;3.67;;
52320;SDS011;38261;54.090;13.382;2022-08-01T03:44:10;8.90;;;3.87;;
52320;SDS011;38261;54.090;13.382;2022-08-01T03:45:40;5.73;;;4.07;;
52320;SDS011;38261;54.090;13.382;2022-08-01T03:47:08;6.20;;;4.10;;
52320;SDS011;38261;54.090;13.382;2022-08-01T03:48:31;4.37;;;3.10;;
52320;SDS011;38261;54.090;13.382;2022-08-01T03:49:58;4.50;;;3.90;;
52320;SDS011;38261;54.090;13.382;2022-08-01T03:51:21;6.60;;;3.60;;
52320;SDS011;38261;54.090;13.382;2022-08-01T03:52:45;5.07;;;3.47;;
52320;SDS011;38261;54.090;13.382;2022-08-01T03:54:09;5.47;;;4.10;;
52320;SDS011;38261;54.090;13.382;2022-08-01T03:55:32;6.10;;;4.50;;
52320;SDS011;38261;54.090;13.382;2022-08-01T03:56:55;5.20;;;4.30;;
52320;SDS011;38261;54.090;13.382;2022-08-01T03:58:19;8.53;;;4.10;;
52320;SDS011;38261;54.090;13.382;2022-08-01T03:59:42;6.70;;;4.10;;
52320;SDS011;38261;54.090;13.382;2022-08-01T04:01:06;5.93;;;4.27;;
52320;SDS011;38261;54.090;13.382;2022-08-01T04:02:36;6.90;;;3.93;;
52320;SDS011;38261;54.090;13.382;2022-08-01T04:03:59;4.30;;;3.90;;
52320;SDS011;38261;54.090;13.382;2022-08-01T04:05:22;4.23;;;3.80;;
52320;SDS011;38261;54.090;13.382;2022-08-01T04:06:45;7.73;;;4.07;;
52320;SDS011;38261;54.090;13.382;2022-08-01T04:08:09;6.70;;;4.07;;
52320;SDS011;38261;54.090;13.382;2022-08-01T04:09:32;4.83;;;3.70;;
52320;SDS011;38261;54.090;13.382;2022-08-01T04:10:54;7.93;;;4.23;;
52320;SDS011;38261;54.090;13.382;2022-08-01T04:12:16;4.00;;;3.43;;
52320;SDS011;38261;54.090;13.382;2022-08-01T04:13:38;9.50;;;4.17;;
52320;SDS011;38261;54.090;13.382;2022-08-01T04:15:05;4.97;;;4.27;;
52320;SDS011;38261;54.090;13.382;2022-08-01T04:16:27;4.07;;;3.33;;
52320;SDS011;38261;54.090;13.382;2022-08-01T04:17:50;4.60;;;3.40;;
52320;SDS011;38261;54.090;13.382;2022-08-01T04:19:12;5.23;;;4.13;;
52320;SDS011;38261;54.090;13.382;2022-08-01T04:20:34;5.80;;;4.00;;
52320;SDS011;38261;54.090;13.382;2022-08-01T04:21:57;4.70;;;3.67;;
52320;SDS011;38261;54.090;13.382;2022-08-01T04:23:20;6.97;;;3.90;;
52320;SDS011;38261;54.090;13.382;2022-08-01T04:24:47;5.87;;;3.63;;
52320;SDS011;38261;54.090;13.382;2022-08-01T04:26:17;4.60;;;3.90;;
52320;SDS011;38261;54.090;13.382;2022-08-01T04:27:42;6.83;;;4.30;;
52320;SDS011;38261;54.090;13.382;2022-08-01T04:29:12;3.97;;;3.37;;
52320;SDS011;38261;54.090;13.382;2022-08-01T04:30:38;6.10;;;3.80;;
52320;SDS011;38261;54.090;13.382;2022-08-01T04:32:01;9.67;;;3.83;;
52320;SDS011;38261;54.090;13.382;2022-08-01T04:33:24;3.53;;;3.23;;
52320;SDS011;38261;54.090;13.382;2022-08-01T04:34:49;6.13;;;3.70;;
52320;SDS011;38261;54.090;13.382;2022-08-01T04:36:12;5.10;;;3.47;;
52320;SDS011;38261;54.090;13.382;2022-08-01T04:37:36;6.67;;;3.30;;
52320;SDS011;38261;54.090;13.382;2022-08-01T04:39:00;6.70;;;3.83;;
52320;SDS011;38261;54.090;13.382;2022-08-01T04:40:26;5.23;;;3.70;;
52320;SDS011;38261;54.090;13.382;2022-08-01T04:41:48;5.07;;;3.60;;
52320;SDS011;38261;54.090;13.382;2022-08-01T04:43:12;4.70;;;3.83;;
52320;SDS011;38261;54.090;13.382;2022-08-01T04:44:35;4.80;;;3.20;;
52320;SDS011;38261;54.090;13.382;2022-08-01T04:45:58;4.90;;;3.40;;
52320;SDS011;38261;54.090;13.382;2022-08-01T04:47:23;7.50;;;3.40;;
52320;SDS011;38261;54.090;13.382;2022-08-01T04:48:47;6.80;;;4.10;;
52320;SDS011;38261;54.090;13.382;2022-08-01T04:50:11;6.77;;;4.30;;
52320;SDS011;38261;54.090;13.382;2022-08-01T04:51:33;4.67;;;3.43;;
52320;SDS011;38261;54.090;13.382;2022-08-01T04:52:56;5.73;;;3.80;;
52320;SDS011;38261;54.090;13.382;2022-08-01T04:54:18;4.33;;;3.37;;
52320;SDS011;38261;54.090;13.382;2022-08-01T04:55:40;5.40;;;3.47;;
52320;SDS011;38261;54.090;13.382;2022-08-01T04:57:03;7.00;;;3.70;;
52320;SDS011;38261;54.090;13.382;2022-08-01T04:58:26;5.47;;;3.60;;
52320;SDS011;38261;54.090;13.382;2022-08-01T04:59:48;5.60;;;3.27;;
52320;SDS011;38261;54.090;13.382;2022-08-01T05:01:17;4.60;;;2.90;;
52320;SDS011;38261;54.090;13.382;2022-08-01T05:02:39;4.23;;;3.30;;
52320;SDS011;38261;54.090;13.382;2022-08-01T05:04:02;3.63;;;2.97;;
52320;SDS011;38261;54.090;13.382;2022-08-01T05:05:24;4.37;;;3.07;;
52320;SDS011;38261;54.090;13.382;2022-08-01T05:06:47;3.70;;;2.70;;
52320;SDS011;38261;54.090;13.382;2022-08-01T05:08:09;9.07;;;3.53;;
52320;SDS011;38261;54.090;13.382;2022-08-01T05:09:32;3.30;;;2.93;;
52320;SDS011;38261;54.090;13.382;2022-08-01T05:10:55;5.30;;;3.90;;
52320;SDS011;38261;54.090;13.382;2022-08-01T05:12:17;6.60;;;3.77;;
52320;SDS011;38261;54.090;13.382;2022-08-01T05:13:39;6.00;;;3.57;;
52320;SDS011;38261;54.090;13.382;2022-08-01T05:15:02;3.70;;;3.40;;
52320;SDS011;38261;54.090;13.382;2022-08-01T05:16:24;6.03;;;3.03;;
52320;SDS011;38261;54.090;13.382;2022-08-01T05:17:47;7.50;;;3.47;;
52320;SDS011;38261;54.090;13.382;2022-08-01T05:19:10;6.87;;;3.60;;
52320;SDS011;38261;54.090;13.382;2022-08-01T05:20:32;5.80;;;3.70;;
52320;SDS011;38261;54.090;13.382;2022-08-01T05:21:55;4.83;;;3.20;;
52320;SDS011;38261;54.090;13.382;2022-08-01T05:23:20;5.03;;;3.63;;
52320;SDS011;38261;54.090;13.382;2022-08-01T05:25:03;4.83;;;3.20;;
52320;SDS011;38261;54.090;13.382;2022-08-01T05:26:29;6.67;;;3.50;;
52320;SDS011;38261;54.090;13.382;2022-08-01T05:27:52;4.80;;;3.10;;
52320;SDS011;38261;54.090;13.382;2022-08-01T05:29:14;3.80;;;2.60;;
52320;SDS011;38261;54.090;13.382;2022-08-01T05:30:38;3.43;;;2.67;;
52320;SDS011;38261;54.090;13.382;2022-08-01T05:32:00;9.60;;;4.20;;
52320;SDS011;38261;54.090;13.382;2022-08-01T05:33:22;7.13;;;3.00;;
52320;SDS011;38261;54.090;13.382;2022-08-01T05:34:47;7.37;;;3.00;;
52320;SDS011;38261;54.090;13.382;2022-08-01T05:36:09;7.47;;;3.10;;
52320;SDS011;38261;54.090;13.382;2022-08-01T05:37:31;3.70;;;3.13;;
52320;SDS011;38261;54.090;13.382;2022-08-01T05:38:53;5.53;;;3.07;;
52320;SDS011;38261;54.090;13.382;2022-08-01T05:40:15;7.93;;;3.20;;
52320;SDS011;38261;54.090;13.382;2022-08-01T05:41:37;6.63;;;2.90;;
52320;SDS011;38261;54.090;13.382;2022-08-01T05:43:00;7.07;;;3.40;;
52320;SDS011;38261;54.090;13.382;2022-08-01T05:44:22;3.60;;;3.30;;
52320;SDS011;38261;54.090;13.382;2022-08-01T05:45:44;4.23;;;3.23;;
52320;SDS011;38261;54.090;13.382;2022-08-01T05:47:07;4.20;;;3.53;;
52320;SDS011;38261;54.090;13.382;2022-08-01T05:48:29;5.47;;;3.60;;
52320;SDS011;38261;54.090;13.382;2022-08-01T05:49:51;12.03;;;3.50;;
52320;SDS011;38261;54.090;13.382;2022-08-01T05:51:14;6.40;;;3.07;;
52320;SDS011;38261;54.090;13.382;2022-08-01T05:52:36;9.93;;;3.47;;
52320;SDS011;38261;54.090;13.382;2022-08-01T05:53:58;11.83;;;3.10;;
52320;SDS011;38261;54.090;13.382;2022-08-01T05:55:20;4.73;;;3.10;;
52320;SDS011;38261;54.090;13.382;2022-08-01T05:56:43;4.33;;;2.60;;
52320;SDS011;38261;54.090;13.382;2022-08-01T05:58:06;6.23;;;3.20;;
52320;SDS011;38261;54.090;13.382;2022-08-01T05:59:33;8.60;;;3.20;;
52320;SDS011;38261;54.090;13.382;2022-08-01T06:00:55;5.10;;;2.80;;
52320;SDS011;38261;54.090;13.382;2022-08-01T06:02:17;5.83;;;3.53;;
52320;SDS011;38261;54.090;13.382;2022-08-01T06:03:39;6.03;;;3.30;;
52320;SDS011;38261;54.090;13.382;2022-08-01T06:05:01;4.00;;;3.30;;
52320;SDS011;38261;54.090;13.382;2022-08-01T06:06:24;4.03;;;2.77;;
52320;SDS011;38261;54.090;13.382;2022-08-01T06:07:46;5.20;;;2.80;;
52320;SDS011;38261;54.090;13.382;2022-08-01T06:09:09;3.63;;;2.50;;
52320;SDS011;38261;54.090;13.382;2022-08-01T06:10:31;3.50;;;2.60;;
52320;SDS011;38261;54.090;13.382;2022-08-01T06:11:53;8.03;;;3.13;;
52320;SDS011;38261;54.090;13.382;2022-08-01T06:13:15;2.97;;;2.67;;
52320;SDS011;38261;54.090;13.382;2022-08-01T06:14:38;6.17;;;3.17;;
52320;SDS011;38261;54.090;13.382;2022-08-01T06:16:00;5.80;;;3.10;;
52320;SDS011;38261;54.090;13.382;2022-08-01T06:17:22;3.90;;;2.10;;
52320;SDS011;38261;54.090;13.382;2022-08-01T06:18:44;3.07;;;2.80;;
52320;SDS011;38261;54.090;13.382;2022-08-01T06:20:06;4.33;;;2.90;;
52320;SDS011;38261;54.090;13.382;2022-08-01T06:21:29;5.07;;;2.30;;
52320;SDS011;38261;54.090;13.382;2022-08-01T06:22:51;7.83;;;3.20;;
52320;SDS011;38261;54.090;13.382;2022-08-01T06:24:15;3.53;;;2.50;;
52320;SDS011;38261;54.090;13.382;2022-08-01T06:25:37;4.10;;;2.60;;
52320;SDS011;38261;54.090;13.382;2022-08-01T06:26:59;9.10;;;2.87;;
52320;SDS011;38261;54.090;13.382;2022-08-01T06:28:21;3.20;;;2.77;;
52320;SDS011;38261;54.090;13.382;2022-08-01T06:29:44;4.97;;;2.70;;
52320;SDS011;38261;54.090;13.382;2022-08-01T06:31:14;2.70;;;2.43;;
52320;SDS011;38261;54.090;13.382;2022-08-01T06:32:37;4.53;;;2.80;;
52320;SDS011;38261;54.090;13.382;2022-08-01T06:33:59;3.63;;;2.60;;
52320;SDS011;38261;54.090;13.382;2022-08-01T06:35:21;5.93;;;2.93;;
52320;SDS011;38261;54.090;13.382;2022-08-01T06:36:43;4.23;;;2.90;;
52320;SDS011;38261;54.090;13.382;2022-08-01T06:38:05;5.27;;;2.97;;
52320;SDS011;38261;54.090;13.382;2022-08-01T06:39:27;6.53;;;3.57;;
52320;SDS011;38261;54.090;13.382;2022-08-01T06:40:49;5.00;;;3.70;;
52320;SDS011;38261;54.090;13.382;2022-08-01T06:42:12;4.83;;;2.63;;
52320;SDS011;38261;54.090;13.382;2022-08-01T06:43:36;5.47;;;4.03;;
52320;SDS011;38261;54.090;13.382;2022-08-01T06:44:58;4.40;;;3.40;;
52320;SDS011;38261;54.090;13.382;2022-08-01T06:46:20;5.57;;;3.40;;
52320;SDS011;38261;54.090;13.382;2022-08-01T06:47:43;4.83;;;3.17;;
52320;SDS011;38261;54.090;13.382;2022-08-01T06:49:11;4.70;;;2.80;;
52320;SDS011;38261;54.090;13.382;2022-08-01T06:50:33;3.80;;;2.80;;
52320;SDS011;38261;54.090;13.382;2022-08-01T06:51:57;4.13;;;2.63;;
52320;SDS011;38261;54.090;13.382;2022-08-01T06:53:19;6.70;;;3.27;;
52320;SDS011;38261;54.090;13.382;2022-08-01T06:54:41;5.87;;;3.90;;
52320;SDS011;38261;54.090;13.382;2022-08-01T06:56:03;4.93;;;3.53;;
52320;SDS011;38261;54.090;13.382;2022-08-01T06:57:26;5.80;;;3.67;;
52320;SDS011;38261;54.090;13.382;2022-08-01T06:58:52;7.70;;;3.90;;
52320;SDS011;38261;54.090;13.382;2022-08-01T07:00:14;10.03;;;4.30;;
52320;SDS011;38261;54.090;13.382;2022-08-01T07:01:39;8.80;;;3.53;;
52320;SDS011;38261;54.090;13.382;2022-08-01T07:03:02;6.73;;;4.33;;
52320;SDS011;38261;54.090;13.382;2022-08-01T07:04:24;10.20;;;3.63;;
52320;SDS011;38261;54.090;13.382;2022-08-01T07:05:47;10.20;;;3.77;;
52320;SDS011;38261;54.090;13.382;2022-08-01T07:07:09;4.87;;;4.37;;
52320;SDS011;38261;54.090;13.382;2022-08-01T07:08:31;6.47;;;4.40;;
52320;SDS011;38261;54.090;13.382;2022-08-01T07:09:53;6.73;;;3.80;;
52320;SDS011;38261;54.090;13.382;2022-08-01T07:11:15;5.97;;;3.57;;
52320;SDS011;38261;54.090;13.382;2022-08-01T07:12:37;4.53;;;3.60;;
52320;SDS011;38261;54.090;13.382;2022-08-01T07:14:00;7.03;;;4.53;;
52320;SDS011;38261;54.090;13.382;2022-08-01T07:15:23;4.57;;;4.17;;
52320;SDS011;38261;54.090;13.382;2022-08-01T07:16:48;5.43;;;3.97;;
52320;SDS011;38261;54.090;13.382;2022-08-01T07:18:10;9.03;;;4.10;;
52320;SDS011;38261;54.090;13.382;2022-08-01T07:19:32;5.00;;;3.53;;
52320;SDS011;38261;54.090;13.382;2022-08-01T07:20:58;9.80;;;3.83;;
52320;SDS011;38261;54.090;13.382;2022-08-01T07:22:25;5.93;;;3.47;;
52320;SDS011;38261;54.090;13.382;2022-08-01T07:23:47;5.90;;;3.70;;
52320;SDS011;38261;54.090;13.382;2022-08-01T07:25:10;3.90;;;3.50;;
52320;SDS011;38261;54.090;13.382;2022-08-01T07:26:32;7.07;;;3.80;;
52320;SDS011;38261;54.090;13.382;2022-08-01T07:27:54;4.63;;;3.83;;
52320;SDS011;38261;54.090;13.382;2022-08-01T07:29:16;5.10;;;3.67;;
52320;SDS011;38261;54.090;13.382;2022-08-01T07:30:38;6.93;;;4.47;;
52320;SDS011;38261;54.090;13.382;2022-08-01T07:32:03;7.47;;;4.03;;
52320;SDS011;38261;54.090;13.382;2022-08-01T07:33:26;6.33;;;4.37;;
52320;SDS011;38261;54.090;13.382;2022-08-01T07:35:08;8.63;;;3.87;;
52320;SDS011;38261;54.090;13.382;2022-08-01T07:36:33;7.30;;;3.70;;
52320;SDS011;38261;54.090;13.382;2022-08-01T07:37:55;4.73;;;3.67;;
52320;SDS011;38261;54.090;13.382;2022-08-01T07:39:18;4.80;;;3.77;;
52320;SDS011;38261;54.090;13.382;2022-08-01T07:40:43;4.70;;;3.40;;
52320;SDS011;38261;54.090;13.382;2022-08-01T07:42:06;4.73;;;3.50;;
52320;SDS011;38261;54.090;13.382;2022-08-01T07:43:29;4.13;;;3.10;;
52320;SDS011;38261;54.090;13.382;2022-08-01T07:44:51;5.13;;;3.03;;
52320;SDS011;38261;54.090;13.382;2022-08-01T07:46:13;4.30;;;3.50;;
52320;SDS011;38261;54.090;13.382;2022-08-01T07:47:35;11.27;;;3.40;;
52320;SDS011;38261;54.090;13.382;2022-08-01T07:48:58;4.67;;;3.47;;
52320;SDS011;38261;54.090;13.382;2022-08-01T07:50:20;3.80;;;3.20;;
52320;SDS011;38261;54.090;13.382;2022-08-01T07:51:42;4.17;;;3.10;;
52320;SDS011;38261;54.090;13.382;2022-08-01T07:53:24;5.03;;;3.23;;
52320;SDS011;38261;54.090;13.382;2022-08-01T07:54:47;8.03;;;2.97;;
52320;SDS011;38261;54.090;13.382;2022-08-01T07:56:12;5.23;;;2.80;;
52320;SDS011;38261;54.090;13.382;2022-08-01T07:57:35;4.47;;;3.63;;
52320;SDS011;38261;54.090;13.382;2022-08-01T07:58:57;8.47;;;3.53;;
52320;SDS011;38261;54.090;13.382;2022-08-01T08:00:19;5.73;;;4.00;;
52320;SDS011;38261;54.090;13.382;2022-08-01T08:01:42;4.90;;;3.80;;
52320;SDS011;38261;54.090;13.382;2022-08-01T08:03:08;8.40;;;3.93;;
52320;SDS011;38261;54.090;13.382;2022-08-01T08:04:31;4.60;;;3.63;;
52320;SDS011;38261;54.090;13.382;2022-08-01T08:05:53;5.73;;;3.73;;
52320;SDS011;38261;54.090;13.382;2022-08-01T08:07:20;3.53;;;3.20;;
52320;SDS011;38261;54.090;13.382;2022-08-01T08:08:42;5.07;;;3.37;;
52320;SDS011;38261;54.090;13.382;2022-08-01T08:10:05;5.67;;;3.80;;
52320;SDS011;38261;54.090;13.382;2022-08-01T08:11:27;8.40;;;3.87;;
52320;SDS011;38261;54.090;13.382;2022-08-01T08:12:50;5.00;;;4.03;;
52320;SDS011;38261;54.090;13.382;2022-08-01T08:14:12;3.30;;;3.00;;
52320;SDS011;38261;54.090;13.382;2022-08-01T08:15:35;4.27;;;3.80;;
52320;SDS011;38261;54.090;13.382;2022-08-01T08:16:57;4.53;;;3.30;;
52320;SDS011;38261;54.090;13.382;2022-08-01T08:18:19;4.60;;;3.40;;
52320;SDS011;38261;54.090;13.382;2022-08-01T08:19:41;4.87;;;3.50;;
52320;SDS011;38261;54.090;13.382;2022-08-01T08:21:03;8.73;;;3.63;;
52320;SDS011;38261;54.090;13.382;2022-08-01T08:22:27;5.80;;;3.33;;
52320;SDS011;38261;54.090;13.382;2022-08-01T08:23:52;3.60;;;3.30;;
52320;SDS011;38261;54.090;13.382;2022-08-01T08:25:33;3.33;;;3.03;;
52320;SDS011;38261;54.090;13.382;2022-08-01T08:26:58;4.03;;;3.50;;
52320;SDS011;38261;54.090;13.382;2022-08-01T08:28:21;5.30;;;4.77;;
52320;SDS011;38261;54.090;13.382;2022-08-01T08:29:48;8.67;;;5.63;;
52320;SDS011;38261;54.090;13.382;2022-08-01T08:31:10;3.83;;;3.50;;
52320;SDS011;38261;54.090;13.382;2022-08-01T08:32:52;4.63;;;3.43;;